sensor_id;sensor_type;location;lat;lon;timestamp;P1;durP1;ratioP1;P2;durP2;ratioP2
70997;SDS011;58663;52.040;4.634;2023-04-03T00:00:43;3.38;;;1.25;;
70997;SDS011;58663;52.040;4.634;2023-04-03T00:03:09;3.33;;;1.40;;
70997;SDS011;58663;52.040;4.634;2023-04-03T00:05:35;3.10;;;1.42;;
70997;SDS011;58663;52.040;4.634;2023-04-03T00:08:00;2.28;;;1.20;;
70997;SDS011;58663;52.040;4.634;2023-04-03T00:10:27;4.53;;;1.67;;
70997;SDS011;58663;52.040;4.634;2023-04-03T00:12:53;4.75;;;2.03;;
70997;SDS011;58663;52.040;4.634;2023-04-03T00:15:18;2.05;;;1.25;;
70997;SDS011;58663;52.040;4.634;2023-04-03T00:17:44;2.60;;;1.65;;
70997;SDS011;58663;52.040;4.634;2023-04-03T00:20:09;4.20;;;1.55;;
70997;SDS011;58663;52.040;4.634;2023-04-03T00:22:35;4.97;;;1.65;;
70997;SDS011;58663;52.040;4.634;2023-04-03T00:25:00;3.40;;;1.23;;
70997;SDS011;58663;52.040;4.634;2023-04-03T00:27:25;5.97;;;1.35;;
70997;SDS011;58663;52.040;4.634;2023-04-03T00:29:51;2.92;;;1.42;;
70997;SDS011;58663;52.040;4.634;2023-04-03T00:32:16;4.15;;;1.25;;
70997;SDS011;58663;52.040;4.634;2023-04-03T00:34:42;3.63;;;1.40;;
70997;SDS011;58663;52.040;4.634;2023-04-03T00:37:07;2.08;;;1.33;;
70997;SDS011;58663;52.040;4.634;2023-04-03T00:39:32;3.30;;;1.50;;
70997;SDS011;58663;52.040;4.634;2023-04-03T00:41:58;1.17;;;1.08;;
70997;SDS011;58663;52.040;4.634;2023-04-03T00:46:58;2.03;;;1.20;;
70997;SDS011;58663;52.040;4.634;2023-04-03T00:49:23;2.88;;;1.48;;
70997;SDS011;58663;52.040;4.634;2023-04-03T00:51:49;2.35;;;1.08;;
70997;SDS011;58663;52.040;4.634;2023-04-03T00:54:14;2.25;;;1.02;;
70997;SDS011;58663;52.040;4.634;2023-04-03T00:56:40;2.83;;;1.58;;
70997;SDS011;58663;52.040;4.634;2023-04-03T00:59:08;2.33;;;1.60;;
70997;SDS011;58663;52.040;4.634;2023-04-03T01:01:36;1.60;;;1.02;;
70997;SDS011;58663;52.040;4.634;2023-04-03T01:04:03;4.35;;;1.15;;
70997;SDS011;58663;52.040;4.634;2023-04-03T01:06:32;2.80;;;1.48;;
70997;SDS011;58663;52.040;4.634;2023-04-03T01:08:59;3.50;;;1.75;;
70997;SDS011;58663;52.040;4.634;2023-04-03T01:11:25;1.73;;;1.20;;
70997;SDS011;58663;52.040;4.634;2023-04-03T01:13:51;3.38;;;1.08;;
70997;SDS011;58663;52.040;4.634;2023-04-03T01:16:16;1.60;;;1.10;;
70997;SDS011;58663;52.040;4.634;2023-04-03T01:18:42;3.15;;;1.70;;
70997;SDS011;58663;52.040;4.634;2023-04-03T01:26:19;2.97;;;1.10;;
70997;SDS011;58663;52.040;4.634;2023-04-03T01:28:45;1.55;;;1.10;;
70997;SDS011;58663;52.040;4.634;2023-04-03T01:33:42;1.33;;;1.00;;
70997;SDS011;58663;52.040;4.634;2023-04-03T01:36:07;1.63;;;0.98;;
70997;SDS011;58663;52.040;4.634;2023-04-03T01:38:34;1.80;;;0.98;;
70997;SDS011;58663;52.040;4.634;2023-04-03T01:40:59;2.13;;;1.10;;
70997;SDS011;58663;52.040;4.634;2023-04-03T01:43:25;3.58;;;1.40;;
70997;SDS011;58663;52.040;4.634;2023-04-03T01:45:50;3.13;;;1.65;;
70997;SDS011;58663;52.040;4.634;2023-04-03T01:48:17;2.83;;;1.30;;
70997;SDS011;58663;52.040;4.634;2023-04-03T01:50:43;3.10;;;1.63;;
70997;SDS011;58663;52.040;4.634;2023-04-03T01:53:08;2.53;;;1.20;;
70997;SDS011;58663;52.040;4.634;2023-04-03T01:55:34;4.00;;;1.45;;
70997;SDS011;58663;52.040;4.634;2023-04-03T01:57:59;2.72;;;1.42;;
70997;SDS011;58663;52.040;4.634;2023-04-03T02:00:24;3.08;;;1.63;;
70997;SDS011;58663;52.040;4.634;2023-04-03T02:02:51;1.67;;;1.20;;
70997;SDS011;58663;52.040;4.634;2023-04-03T02:05:17;5.82;;;1.48;;
70997;SDS011;58663;52.040;4.634;2023-04-03T02:07:42;1.73;;;1.23;;
70997;SDS011;58663;52.040;4.634;2023-04-03T02:10:08;4.78;;;1.33;;
70997;SDS011;58663;52.040;4.634;2023-04-03T02:12:33;4.72;;;1.60;;
70997;SDS011;58663;52.040;4.634;2023-04-03T02:14:58;3.50;;;1.42;;
70997;SDS011;58663;52.040;4.634;2023-04-03T02:17:24;2.60;;;1.52;;
70997;SDS011;58663;52.040;4.634;2023-04-03T02:19:49;5.28;;;1.52;;
70997;SDS011;58663;52.040;4.634;2023-04-03T02:22:15;2.03;;;1.30;;
70997;SDS011;58663;52.040;4.634;2023-04-03T02:24:40;3.83;;;1.40;;
70997;SDS011;58663;52.040;4.634;2023-04-03T02:27:06;5.93;;;2.40;;
70997;SDS011;58663;52.040;4.634;2023-04-03T02:29:31;2.97;;;1.48;;
70997;SDS011;58663;52.040;4.634;2023-04-03T02:31:57;4.47;;;1.23;;
70997;SDS011;58663;52.040;4.634;2023-04-03T02:34:22;5.10;;;1.38;;
70997;SDS011;58663;52.040;4.634;2023-04-03T02:36:47;1.48;;;1.17;;
70997;SDS011;58663;52.040;4.634;2023-04-03T02:39:13;5.00;;;1.50;;
70997;SDS011;58663;52.040;4.634;2023-04-03T02:41:38;1.33;;;1.05;;
70997;SDS011;58663;52.040;4.634;2023-04-03T02:44:05;1.90;;;1.15;;
70997;SDS011;58663;52.040;4.634;2023-04-03T02:46:31;5.68;;;1.88;;
70997;SDS011;58663;52.040;4.634;2023-04-03T02:48:57;2.28;;;1.40;;
70997;SDS011;58663;52.040;4.634;2023-04-03T02:51:22;4.35;;;1.75;;
70997;SDS011;58663;52.040;4.634;2023-04-03T02:53:48;2.83;;;1.20;;
70997;SDS011;58663;52.040;4.634;2023-04-03T02:56:14;4.03;;;1.60;;
70997;SDS011;58663;52.040;4.634;2023-04-03T02:58:39;3.03;;;1.70;;
70997;SDS011;58663;52.040;4.634;2023-04-03T03:01:05;2.42;;;1.35;;
70997;SDS011;58663;52.040;4.634;2023-04-03T03:03:30;2.60;;;1.30;;
70997;SDS011;58663;52.040;4.634;2023-04-03T03:06:03;3.08;;;1.60;;
70997;SDS011;58663;52.040;4.634;2023-04-03T03:08:33;2.33;;;1.48;;
70997;SDS011;58663;52.040;4.634;2023-04-03T03:10:58;2.47;;;1.60;;
70997;SDS011;58663;52.040;4.634;2023-04-03T03:13:23;3.60;;;1.63;;
70997;SDS011;58663;52.040;4.634;2023-04-03T03:15:49;3.50;;;1.40;;
70997;SDS011;58663;52.040;4.634;2023-04-03T03:18:15;3.22;;;1.52;;
70997;SDS011;58663;52.040;4.634;2023-04-03T03:20:40;2.63;;;1.60;;
70997;SDS011;58663;52.040;4.634;2023-04-03T03:23:06;2.85;;;1.67;;
70997;SDS011;58663;52.040;4.634;2023-04-03T03:25:31;4.25;;;1.60;;
70997;SDS011;58663;52.040;4.634;2023-04-03T03:27:56;3.70;;;1.27;;
70997;SDS011;58663;52.040;4.634;2023-04-03T03:30:22;1.83;;;1.58;;
70997;SDS011;58663;52.040;4.634;2023-04-03T03:32:47;2.85;;;1.52;;
70997;SDS011;58663;52.040;4.634;2023-04-03T03:35:12;2.88;;;1.70;;
70997;SDS011;58663;52.040;4.634;2023-04-03T03:37:38;2.72;;;1.20;;
70997;SDS011;58663;52.040;4.634;2023-04-03T03:40:03;2.03;;;1.55;;
70997;SDS011;58663;52.040;4.634;2023-04-03T03:42:29;2.08;;;1.30;;
70997;SDS011;58663;52.040;4.634;2023-04-03T03:44:54;5.05;;;1.83;;
70997;SDS011;58663;52.040;4.634;2023-04-03T03:47:19;2.20;;;1.60;;
70997;SDS011;58663;52.040;4.634;2023-04-03T03:49:45;3.45;;;2.20;;
70997;SDS011;58663;52.040;4.634;2023-04-03T03:52:10;4.93;;;2.15;;
70997;SDS011;58663;52.040;4.634;2023-04-03T03:54:36;3.15;;;1.90;;
70997;SDS011;58663;52.040;4.634;2023-04-03T03:57:02;6.38;;;2.00;;
70997;SDS011;58663;52.040;4.634;2023-04-03T03:59:27;3.35;;;1.88;;
70997;SDS011;58663;52.040;4.634;2023-04-03T04:01:53;3.50;;;1.52;;
70997;SDS011;58663;52.040;4.634;2023-04-03T04:04:18;2.85;;;1.85;;
70997;SDS011;58663;52.040;4.634;2023-04-03T04:06:44;3.33;;;1.73;;
70997;SDS011;58663;52.040;4.634;2023-04-03T04:09:09;3.35;;;2.10;;
70997;SDS011;58663;52.040;4.634;2023-04-03T04:11:35;3.83;;;2.20;;
70997;SDS011;58663;52.040;4.634;2023-04-03T04:14:00;3.22;;;2.10;;
70997;SDS011;58663;52.040;4.634;2023-04-03T04:16:26;2.70;;;1.90;;
70997;SDS011;58663;52.040;4.634;2023-04-03T04:18:51;2.17;;;1.65;;
70997;SDS011;58663;52.040;4.634;2023-04-03T04:21:16;2.38;;;1.80;;
70997;SDS011;58663;52.040;4.634;2023-04-03T04:23:42;3.30;;;1.90;;
70997;SDS011;58663;52.040;4.634;2023-04-03T04:26:07;6.72;;;1.98;;
70997;SDS011;58663;52.040;4.634;2023-04-03T04:28:32;3.50;;;1.95;;
70997;SDS011;58663;52.040;4.634;2023-04-03T04:30:58;4.82;;;1.67;;
70997;SDS011;58663;52.040;4.634;2023-04-03T04:33:23;4.38;;;1.92;;
70997;SDS011;58663;52.040;4.634;2023-04-03T04:35:48;3.55;;;1.83;;
70997;SDS011;58663;52.040;4.634;2023-04-03T04:38:14;3.00;;;1.73;;
70997;SDS011;58663;52.040;4.634;2023-04-03T04:40:40;5.57;;;1.98;;
70997;SDS011;58663;52.040;4.634;2023-04-03T04:43:06;4.82;;;2.00;;
70997;SDS011;58663;52.040;4.634;2023-04-03T04:45:31;4.05;;;1.90;;
70997;SDS011;58663;52.040;4.634;2023-04-03T04:47:57;4.78;;;1.60;;
70997;SDS011;58663;52.040;4.634;2023-04-03T04:50:22;11.80;;;2.28;;
70997;SDS011;58663;52.040;4.634;2023-04-03T04:52:48;7.40;;;2.33;;
70997;SDS011;58663;52.040;4.634;2023-04-03T04:55:13;7.55;;;2.20;;
70997;SDS011;58663;52.040;4.634;2023-04-03T04:57:38;2.97;;;1.83;;
70997;SDS011;58663;52.040;4.634;2023-04-03T05:00:04;5.00;;;1.50;;
70997;SDS011;58663;52.040;4.634;2023-04-03T05:02:31;3.47;;;2.00;;
70997;SDS011;58663;52.040;4.634;2023-04-03T05:04:57;3.55;;;2.00;;
70997;SDS011;58663;52.040;4.634;2023-04-03T05:07:22;8.85;;;2.25;;
70997;SDS011;58663;52.040;4.634;2023-04-03T05:09:48;4.32;;;2.03;;
70997;SDS011;58663;52.040;4.634;2023-04-03T05:12:13;3.90;;;2.10;;
70997;SDS011;58663;52.040;4.634;2023-04-03T05:14:38;5.03;;;1.90;;
70997;SDS011;58663;52.040;4.634;2023-04-03T05:17:04;5.03;;;2.03;;
70997;SDS011;58663;52.040;4.634;2023-04-03T05:19:29;4.57;;;2.47;;
70997;SDS011;58663;52.040;4.634;2023-04-03T05:21:55;3.38;;;2.13;;
70997;SDS011;58663;52.040;4.634;2023-04-03T05:24:20;4.97;;;1.58;;
70997;SDS011;58663;52.040;4.634;2023-04-03T05:26:45;5.38;;;2.17;;
70997;SDS011;58663;52.040;4.634;2023-04-03T05:29:11;2.58;;;1.95;;
70997;SDS011;58663;52.040;4.634;2023-04-03T05:31:36;3.65;;;2.13;;
70997;SDS011;58663;52.040;4.634;2023-04-03T05:34:02;5.82;;;2.38;;
70997;SDS011;58663;52.040;4.634;2023-04-03T05:36:27;2.97;;;2.25;;
70997;SDS011;58663;52.040;4.634;2023-04-03T05:38:52;5.75;;;1.95;;
70997;SDS011;58663;52.040;4.634;2023-04-03T05:41:18;8.80;;;2.75;;
70997;SDS011;58663;52.040;4.634;2023-04-03T05:43:43;5.53;;;2.42;;
70997;SDS011;58663;52.040;4.634;2023-04-03T05:46:10;5.07;;;2.70;;
70997;SDS011;58663;52.040;4.634;2023-04-03T05:48:36;4.57;;;2.55;;
70997;SDS011;58663;52.040;4.634;2023-04-03T05:51:02;9.77;;;2.70;;
70997;SDS011;58663;52.040;4.634;2023-04-03T05:53:28;4.97;;;2.28;;
70997;SDS011;58663;52.040;4.634;2023-04-03T05:55:54;3.58;;;2.25;;
70997;SDS011;58663;52.040;4.634;2023-04-03T05:58:20;5.53;;;2.50;;
70997;SDS011;58663;52.040;4.634;2023-04-03T06:00:45;8.18;;;2.85;;
70997;SDS011;58663;52.040;4.634;2023-04-03T06:03:11;7.63;;;3.28;;
70997;SDS011;58663;52.040;4.634;2023-04-03T06:05:36;7.93;;;3.28;;
70997;SDS011;58663;52.040;4.634;2023-04-03T06:08:01;5.38;;;2.33;;
70997;SDS011;58663;52.040;4.634;2023-04-03T06:10:28;10.23;;;2.47;;
70997;SDS011;58663;52.040;4.634;2023-04-03T06:12:53;7.32;;;2.97;;
70997;SDS011;58663;52.040;4.634;2023-04-03T06:15:19;4.03;;;2.45;;
70997;SDS011;58663;52.040;4.634;2023-04-03T06:17:45;6.75;;;2.88;;
70997;SDS011;58663;52.040;4.634;2023-04-03T06:20:11;4.53;;;2.90;;
70997;SDS011;58663;52.040;4.634;2023-04-03T06:22:37;3.17;;;2.22;;
70997;SDS011;58663;52.040;4.634;2023-04-03T06:25:02;8.85;;;2.78;;
70997;SDS011;58663;52.040;4.634;2023-04-03T06:27:28;5.38;;;2.75;;
70997;SDS011;58663;52.040;4.634;2023-04-03T06:29:54;4.97;;;2.78;;
70997;SDS011;58663;52.040;4.634;2023-04-03T06:32:19;5.28;;;2.95;;
70997;SDS011;58663;52.040;4.634;2023-04-03T06:34:45;7.93;;;2.67;;
70997;SDS011;58663;52.040;4.634;2023-04-03T06:37:17;8.32;;;2.35;;
70997;SDS011;58663;52.040;4.634;2023-04-03T06:39:44;3.95;;;1.92;;
70997;SDS011;58663;52.040;4.634;2023-04-03T06:42:10;9.05;;;3.08;;
70997;SDS011;58663;52.040;4.634;2023-04-03T06:44:36;8.27;;;2.85;;
70997;SDS011;58663;52.040;4.634;2023-04-03T06:47:01;3.67;;;2.25;;
70997;SDS011;58663;52.040;4.634;2023-04-03T06:49:27;6.97;;;2.72;;
70997;SDS011;58663;52.040;4.634;2023-04-03T06:51:52;9.75;;;2.22;;
70997;SDS011;58663;52.040;4.634;2023-04-03T06:54:18;4.40;;;2.22;;
70997;SDS011;58663;52.040;4.634;2023-04-03T06:56:43;4.97;;;2.83;;
70997;SDS011;58663;52.040;4.634;2023-04-03T06:59:10;3.58;;;2.15;;
70997;SDS011;58663;52.040;4.634;2023-04-03T07:01:37;3.85;;;2.20;;
70997;SDS011;58663;52.040;4.634;2023-04-03T07:04:03;2.60;;;1.88;;
70997;SDS011;58663;52.040;4.634;2023-04-03T07:06:28;5.60;;;2.30;;
70997;SDS011;58663;52.040;4.634;2023-04-03T07:08:54;2.85;;;1.90;;
70997;SDS011;58663;52.040;4.634;2023-04-03T07:11:20;4.57;;;2.13;;
70997;SDS011;58663;52.040;4.634;2023-04-03T07:13:45;6.28;;;1.95;;
70997;SDS011;58663;52.040;4.634;2023-04-03T07:16:11;1.90;;;1.52;;
70997;SDS011;58663;52.040;4.634;2023-04-03T07:18:36;3.03;;;2.08;;
70997;SDS011;58663;52.040;4.634;2023-04-03T07:21:01;5.03;;;1.88;;
70997;SDS011;58663;52.040;4.634;2023-04-03T07:23:27;4.68;;;1.55;;
70997;SDS011;58663;52.040;4.634;2023-04-03T07:25:53;5.13;;;1.95;;
70997;SDS011;58663;52.040;4.634;2023-04-03T07:28:19;2.42;;;1.63;;
70997;SDS011;58663;52.040;4.634;2023-04-03T07:30:45;2.72;;;1.88;;
70997;SDS011;58663;52.040;4.634;2023-04-03T07:33:12;7.55;;;2.03;;
70997;SDS011;58663;52.040;4.634;2023-04-03T07:35:39;2.67;;;1.65;;
70997;SDS011;58663;52.040;4.634;2023-04-03T07:38:05;7.70;;;2.10;;
70997;SDS011;58663;52.040;4.634;2023-04-03T07:40:31;4.70;;;1.77;;
70997;SDS011;58663;52.040;4.634;2023-04-03T07:42:56;4.10;;;2.13;;
70997;SDS011;58663;52.040;4.634;2023-04-03T07:45:22;3.88;;;1.90;;
70997;SDS011;58663;52.040;4.634;2023-04-03T07:47:48;3.95;;;1.73;;
70997;SDS011;58663;52.040;4.634;2023-04-03T07:50:14;3.10;;;1.65;;
70997;SDS011;58663;52.040;4.634;2023-04-03T07:52:40;2.75;;;1.67;;
70997;SDS011;58663;52.040;4.634;2023-04-03T07:55:06;5.28;;;2.05;;
70997;SDS011;58663;52.040;4.634;2023-04-03T07:57:31;5.32;;;2.45;;
70997;SDS011;58663;52.040;4.634;2023-04-03T07:59:57;4.30;;;1.55;;
70997;SDS011;58663;52.040;4.634;2023-04-03T08:02:22;5.50;;;1.77;;
70997;SDS011;58663;52.040;4.634;2023-04-03T08:04:47;5.57;;;1.95;;
70997;SDS011;58663;52.040;4.634;2023-04-03T08:07:13;4.40;;;1.58;;
70997;SDS011;58663;52.040;4.634;2023-04-03T08:09:38;6.53;;;1.85;;
70997;SDS011;58663;52.040;4.634;2023-04-03T08:12:03;2.13;;;1.67;;
70997;SDS011;58663;52.040;4.634;2023-04-03T08:14:30;4.82;;;1.35;;
70997;SDS011;58663;52.040;4.634;2023-04-03T08:16:56;5.45;;;1.60;;
70997;SDS011;58663;52.040;4.634;2023-04-03T08:19:23;2.28;;;1.40;;
70997;SDS011;58663;52.040;4.634;2023-04-03T08:21:48;5.90;;;2.30;;
70997;SDS011;58663;52.040;4.634;2023-04-03T08:24:13;3.20;;;1.60;;
70997;SDS011;58663;52.040;4.634;2023-04-03T08:26:39;5.50;;;1.75;;
70997;SDS011;58663;52.040;4.634;2023-04-03T08:29:04;6.97;;;1.85;;
70997;SDS011;58663;52.040;4.634;2023-04-03T08:31:30;10.13;;;1.73;;
70997;SDS011;58663;52.040;4.634;2023-04-03T08:33:56;4.30;;;1.52;;
70997;SDS011;58663;52.040;4.634;2023-04-03T08:36:23;4.55;;;2.10;;
70997;SDS011;58663;52.040;4.634;2023-04-03T08:38:50;4.82;;;2.22;;
70997;SDS011;58663;52.040;4.634;2023-04-03T08:49:39;3.53;;;1.25;;
70997;SDS011;58663;52.040;4.634;2023-04-03T08:52:12;3.40;;;1.45;;
70997;SDS011;58663;52.040;4.634;2023-04-03T08:55:01;3.50;;;1.30;;
70997;SDS011;58663;52.040;4.634;2023-04-03T08:59:51;3.13;;;1.08;;
70997;SDS011;58663;52.040;4.634;2023-04-03T09:02:39;1.92;;;1.23;;
70997;SDS011;58663;52.040;4.634;2023-04-03T09:05:16;2.50;;;1.63;;
70997;SDS011;58663;52.040;4.634;2023-04-03T09:10:29;3.75;;;1.40;;
70997;SDS011;58663;52.040;4.634;2023-04-03T09:13:03;2.47;;;1.27;;
70997;SDS011;58663;52.040;4.634;2023-04-03T09:15:32;3.20;;;1.20;;
70997;SDS011;58663;52.040;4.634;2023-04-03T09:20:49;4.90;;;1.17;;
70997;SDS011;58663;52.040;4.634;2023-04-03T09:23:42;0.95;;;0.80;;
70997;SDS011;58663;52.040;4.634;2023-04-03T09:26:15;2.30;;;0.90;;
70997;SDS011;58663;52.040;4.634;2023-04-03T09:28:43;0.88;;;0.70;;
70997;SDS011;58663;52.040;4.634;2023-04-03T09:31:20;1.35;;;0.95;;
70997;SDS011;58663;52.040;4.634;2023-04-03T09:33:50;2.47;;;0.90;;
70997;SDS011;58663;52.040;4.634;2023-04-03T09:39:30;2.35;;;0.93;;
70997;SDS011;58663;52.040;4.634;2023-04-03T09:42:04;0.85;;;0.70;;
70997;SDS011;58663;52.040;4.634;2023-04-03T09:45:00;2.00;;;0.95;;
70997;SDS011;58663;52.040;4.634;2023-04-03T09:47:31;2.95;;;0.80;;
70997;SDS011;58663;52.040;4.634;2023-04-03T09:50:17;1.38;;;0.85;;
70997;SDS011;58663;52.040;4.634;2023-04-03T09:52:48;1.00;;;0.80;;
70997;SDS011;58663;52.040;4.634;2023-04-03T09:57:43;5.07;;;1.08;;
70997;SDS011;58663;52.040;4.634;2023-04-03T10:00:22;1.25;;;0.80;;
70997;SDS011;58663;52.040;4.634;2023-04-03T10:02:54;1.20;;;0.90;;
70997;SDS011;58663;52.040;4.634;2023-04-03T10:05:28;1.83;;;0.88;;
70997;SDS011;58663;52.040;4.634;2023-04-03T10:10:31;1.42;;;0.75;;
70997;SDS011;58663;52.040;4.634;2023-04-03T10:13:04;6.78;;;1.00;;
70997;SDS011;58663;52.040;4.634;2023-04-03T10:15:45;1.45;;;0.90;;
70997;SDS011;58663;52.040;4.634;2023-04-03T10:20:57;1.33;;;1.08;;
70997;SDS011;58663;52.040;4.634;2023-04-03T10:23:32;5.68;;;1.10;;
70997;SDS011;58663;52.040;4.634;2023-04-03T10:29:02;1.27;;;0.80;;
70997;SDS011;58663;52.040;4.634;2023-04-03T10:31:44;1.67;;;0.73;;
70997;SDS011;58663;52.040;4.634;2023-04-03T10:37:03;6.97;;;1.08;;
70997;SDS011;58663;52.040;4.634;2023-04-03T10:45:20;1.73;;;0.70;;
70997;SDS011;58663;52.040;4.634;2023-04-03T10:53:08;2.00;;;0.82;;
70997;SDS011;58663;52.040;4.634;2023-04-03T10:55:44;2.80;;;1.00;;
70997;SDS011;58663;52.040;4.634;2023-04-03T10:58:18;1.08;;;0.80;;
70997;SDS011;58663;52.040;4.634;2023-04-03T11:00:49;1.55;;;0.80;;
70997;SDS011;58663;52.040;4.634;2023-04-03T11:03:17;1.20;;;0.88;;
70997;SDS011;58663;52.040;4.634;2023-04-03T11:05:52;1.48;;;0.63;;
70997;SDS011;58663;52.040;4.634;2023-04-03T11:11:17;7.57;;;0.98;;
70997;SDS011;58663;52.040;4.634;2023-04-03T11:13:50;0.80;;;0.80;;
70997;SDS011;58663;52.040;4.634;2023-04-03T11:16:21;0.73;;;0.50;;
70997;SDS011;58663;52.040;4.634;2023-04-03T11:18:51;1.80;;;0.73;;
70997;SDS011;58663;52.040;4.634;2023-04-03T11:21:21;2.05;;;0.70;;
70997;SDS011;58663;52.040;4.634;2023-04-03T11:23:57;1.00;;;0.82;;
70997;SDS011;58663;52.040;4.634;2023-04-03T11:26:29;0.80;;;0.68;;
70997;SDS011;58663;52.040;4.634;2023-04-03T11:29:18;0.90;;;0.63;;
70997;SDS011;58663;52.040;4.634;2023-04-03T11:37:12;0.70;;;0.50;;
70997;SDS011;58663;52.040;4.634;2023-04-03T11:39:53;1.17;;;0.65;;
70997;SDS011;58663;52.040;4.634;2023-04-03T11:45:15;0.40;;;0.40;;
70997;SDS011;58663;52.040;4.634;2023-04-03T11:47:48;1.08;;;0.68;;
70997;SDS011;58663;52.040;4.634;2023-04-03T11:51:00;0.50;;;0.50;;
70997;SDS011;58663;52.040;4.634;2023-04-03T12:29:27;1.48;;;0.60;;
70997;SDS011;58663;52.040;4.634;2023-04-03T12:45:48;0.90;;;0.73;;
70997;SDS011;58663;52.040;4.634;2023-04-03T12:48:26;2.50;;;0.80;;
70997;SDS011;58663;52.040;4.634;2023-04-03T12:50:53;1.33;;;0.80;;
70997;SDS011;58663;52.040;4.634;2023-04-03T12:53:21;3.92;;;1.13;;
70997;SDS011;58663;52.040;4.634;2023-04-03T12:55:53;1.13;;;0.98;;
70997;SDS011;58663;52.040;4.634;2023-04-03T12:58:26;2.95;;;0.90;;
70997;SDS011;58663;52.040;4.634;2023-04-03T13:00:59;2.03;;;0.77;;
70997;SDS011;58663;52.040;4.634;2023-04-03T13:03:26;1.38;;;0.80;;
70997;SDS011;58663;52.040;4.634;2023-04-03T13:05:52;1.00;;;0.82;;
70997;SDS011;58663;52.040;4.634;2023-04-03T13:08:21;1.55;;;0.95;;
70997;SDS011;58663;52.040;4.634;2023-04-03T13:10:54;0.60;;;0.60;;
70997;SDS011;58663;52.040;4.634;2023-04-03T13:13:23;1.05;;;0.80;;
70997;SDS011;58663;52.040;4.634;2023-04-03T13:15:48;1.33;;;0.77;;
70997;SDS011;58663;52.040;4.634;2023-04-03T13:18:48;1.95;;;1.00;;
70997;SDS011;58663;52.040;4.634;2023-04-03T13:23:56;1.23;;;0.88;;
70997;SDS011;58663;52.040;4.634;2023-04-03T13:26:24;1.30;;;1.20;;
70997;SDS011;58663;52.040;4.634;2023-04-03T13:28:53;2.45;;;1.00;;
70997;SDS011;58663;52.040;4.634;2023-04-03T13:31:27;1.58;;;0.80;;
70997;SDS011;58663;52.040;4.634;2023-04-03T13:33:57;1.80;;;0.93;;
70997;SDS011;58663;52.040;4.634;2023-04-03T13:36:37;1.67;;;0.93;;
70997;SDS011;58663;52.040;4.634;2023-04-03T13:39:07;1.25;;;0.98;;
70997;SDS011;58663;52.040;4.634;2023-04-03T13:41:50;4.32;;;1.00;;
70997;SDS011;58663;52.040;4.634;2023-04-03T13:46:43;0.70;;;0.70;;
70997;SDS011;58663;52.040;4.634;2023-04-03T13:49:22;1.42;;;1.15;;
70997;SDS011;58663;52.040;4.634;2023-04-03T13:51:52;1.58;;;0.90;;
70997;SDS011;58663;52.040;4.634;2023-04-03T13:54:19;3.05;;;0.80;;
70997;SDS011;58663;52.040;4.634;2023-04-03T13:56:54;2.72;;;1.25;;
70997;SDS011;58663;52.040;4.634;2023-04-03T13:59:33;1.48;;;0.77;;
70997;SDS011;58663;52.040;4.634;2023-04-03T14:04:31;2.63;;;1.00;;
70997;SDS011;58663;52.040;4.634;2023-04-03T14:07:21;1.35;;;0.90;;
70997;SDS011;58663;52.040;4.634;2023-04-03T14:09:47;1.65;;;0.90;;
70997;SDS011;58663;52.040;4.634;2023-04-03T14:12:15;2.10;;;0.95;;
70997;SDS011;58663;52.040;4.634;2023-04-03T14:14:43;1.38;;;0.90;;
70997;SDS011;58663;52.040;4.634;2023-04-03T14:17:17;1.85;;;1.02;;
70997;SDS011;58663;52.040;4.634;2023-04-03T14:19:48;1.95;;;1.05;;
70997;SDS011;58663;52.040;4.634;2023-04-03T14:22:21;2.45;;;0.85;;
70997;SDS011;58663;52.040;4.634;2023-04-03T14:24:48;3.67;;;1.17;;
70997;SDS011;58663;52.040;4.634;2023-04-03T14:27:18;1.27;;;1.10;;
70997;SDS011;58663;52.040;4.634;2023-04-03T14:29:46;2.63;;;1.20;;
70997;SDS011;58663;52.040;4.634;2023-04-03T14:32:13;1.02;;;0.70;;
70997;SDS011;58663;52.040;4.634;2023-04-03T14:34:39;1.00;;;0.80;;
70997;SDS011;58663;52.040;4.634;2023-04-03T14:37:08;1.75;;;0.85;;
70997;SDS011;58663;52.040;4.634;2023-04-03T14:39:35;3.17;;;1.10;;
70997;SDS011;58663;52.040;4.634;2023-04-03T14:42:01;3.42;;;1.10;;
70997;SDS011;58663;52.040;4.634;2023-04-03T14:44:26;1.52;;;0.90;;
70997;SDS011;58663;52.040;4.634;2023-04-03T14:46:52;1.35;;;1.00;;
70997;SDS011;58663;52.040;4.634;2023-04-03T14:49:19;2.00;;;1.00;;
70997;SDS011;58663;52.040;4.634;2023-04-03T14:51:45;2.42;;;1.08;;
70997;SDS011;58663;52.040;4.634;2023-04-03T14:54:15;0.93;;;0.70;;
70997;SDS011;58663;52.040;4.634;2023-04-03T14:56:42;3.40;;;1.05;;
70997;SDS011;58663;52.040;4.634;2023-04-03T14:59:09;1.67;;;0.88;;
70997;SDS011;58663;52.040;4.634;2023-04-03T15:01:36;1.23;;;0.98;;
70997;SDS011;58663;52.040;4.634;2023-04-03T15:04:05;3.38;;;0.90;;
70997;SDS011;58663;52.040;4.634;2023-04-03T15:06:35;1.80;;;1.00;;
70997;SDS011;58663;52.040;4.634;2023-04-03T15:09:00;2.25;;;1.50;;
70997;SDS011;58663;52.040;4.634;2023-04-03T15:11:26;2.20;;;1.00;;
70997;SDS011;58663;52.040;4.634;2023-04-03T15:13:51;1.90;;;1.10;;
70997;SDS011;58663;52.040;4.634;2023-04-03T15:16:17;2.10;;;1.15;;
70997;SDS011;58663;52.040;4.634;2023-04-03T15:18:44;2.33;;;1.05;;
70997;SDS011;58663;52.040;4.634;2023-04-03T15:21:10;3.72;;;1.00;;
70997;SDS011;58663;52.040;4.634;2023-04-03T15:23:35;3.92;;;2.10;;
70997;SDS011;58663;52.040;4.634;2023-04-03T15:26:01;2.78;;;1.15;;
70997;SDS011;58663;52.040;4.634;2023-04-03T15:28:37;1.80;;;1.05;;
70997;SDS011;58663;52.040;4.634;2023-04-03T15:31:05;7.00;;;1.33;;
70997;SDS011;58663;52.040;4.634;2023-04-03T15:33:31;2.35;;;1.13;;
70997;SDS011;58663;52.040;4.634;2023-04-03T15:35:57;3.08;;;1.00;;
70997;SDS011;58663;52.040;4.634;2023-04-03T15:38:22;3.30;;;1.20;;
70997;SDS011;58663;52.040;4.634;2023-04-03T15:40:48;2.95;;;1.33;;
70997;SDS011;58663;52.040;4.634;2023-04-03T15:43:13;3.72;;;1.17;;
70997;SDS011;58663;52.040;4.634;2023-04-03T15:45:40;3.92;;;1.40;;
70997;SDS011;58663;52.040;4.634;2023-04-03T15:48:05;3.20;;;0.93;;
70997;SDS011;58663;52.040;4.634;2023-04-03T15:50:31;2.30;;;1.20;;
70997;SDS011;58663;52.040;4.634;2023-04-03T15:52:57;3.20;;;1.30;;
70997;SDS011;58663;52.040;4.634;2023-04-03T15:55:26;2.28;;;1.00;;
70997;SDS011;58663;52.040;4.634;2023-04-03T15:57:52;4.72;;;1.27;;
70997;SDS011;58663;52.040;4.634;2023-04-03T16:00:18;3.05;;;1.27;;
70997;SDS011;58663;52.040;4.634;2023-04-03T16:02:45;1.67;;;1.10;;
70997;SDS011;58663;52.040;4.634;2023-04-03T16:05:11;2.10;;;1.20;;
70997;SDS011;58663;52.040;4.634;2023-04-03T16:07:40;1.85;;;1.45;;
70997;SDS011;58663;52.040;4.634;2023-04-03T16:10:06;2.10;;;1.00;;
70997;SDS011;58663;52.040;4.634;2023-04-03T16:12:33;4.18;;;0.80;;
70997;SDS011;58663;52.040;4.634;2023-04-03T16:14:58;1.83;;;1.15;;
70997;SDS011;58663;52.040;4.634;2023-04-03T16:17:24;4.65;;;1.35;;
70997;SDS011;58663;52.040;4.634;2023-04-03T16:19:51;2.38;;;1.23;;
70997;SDS011;58663;52.040;4.634;2023-04-03T16:22:16;4.93;;;1.40;;
70997;SDS011;58663;52.040;4.634;2023-04-03T16:24:42;4.22;;;1.40;;
70997;SDS011;58663;52.040;4.634;2023-04-03T16:27:07;2.10;;;1.00;;
70997;SDS011;58663;52.040;4.634;2023-04-03T16:29:33;3.28;;;1.35;;
70997;SDS011;58663;52.040;4.634;2023-04-03T16:31:58;4.78;;;1.35;;
70997;SDS011;58663;52.040;4.634;2023-04-03T16:34:24;2.55;;;1.13;;
70997;SDS011;58663;52.040;4.634;2023-04-03T16:36:50;3.13;;;1.30;;
70997;SDS011;58663;52.040;4.634;2023-04-03T16:39:17;2.78;;;1.27;;
70997;SDS011;58663;52.040;4.634;2023-04-03T16:41:43;1.73;;;1.15;;
70997;SDS011;58663;52.040;4.634;2023-04-03T16:44:08;2.97;;;1.27;;
70997;SDS011;58663;52.040;4.634;2023-04-03T16:46:33;2.88;;;1.23;;
70997;SDS011;58663;52.040;4.634;2023-04-03T16:48:59;1.67;;;1.00;;
70997;SDS011;58663;52.040;4.634;2023-04-03T16:51:24;1.58;;;1.00;;
70997;SDS011;58663;52.040;4.634;2023-04-03T16:53:50;1.88;;;1.38;;